x

Cape Elizabeth- 45nm Nw Of Aberdeen, Wa (46041) Wave Buoy

10:50 - Wed 18th Jan 2017 All times are PST. -8 hours from GMT.

  • Sig Wave height 19.4ft
  • Swell Direction
  • Peak Period 13s
  • Average Period 8s
  • Wind
    31mph, 38mph gusts
  • Sea Temp 50°f
  • Air Temp 52°f
  • Sea Pressure 989.5mb
  • Cape Elizabeth- 45nm Nw Of Aberdeen, Wa
  • Cape Elizabeth- 45nm Nw Of Aberdeen, Wa

More Historic Weather Station data

Upgrade to MSW Pro to gain access to the past 30 days of data for over 8000 Wavebouys and Weather Stations around the globe.

Join Pro

Comparision Forecast

View Surf forecast
   
mer. 01/18 10:50 19.5ft 13s 8s 31 38 mph 989.5mb 50f 52f
9:50 24.5ft 13s 9s 31 38 mph 988.8mb 50f 52f
8:50 20.5ft 13s 8s 34 40 mph 988.1mb 50f 52f
7:50 21.5ft 13s 9s 38 47 mph 986.4mb 49f 52f
6:50 18.5ft 11s 8s 31 40 mph 986.7mb 49f 51f
5:50 18.5ft 13s 9s 31 40 mph 987.5mb 47f 51f
4:50 16.5ft 12s 8s 29 34 mph 989.4mb 46f 50f
3:50 17.5ft 11s 9s 27 34 mph 990.7mb 47f 50f
2:50 21ft 12s 9s 22 29 mph 992.1mb 47f 50f
1:50 20.5ft 11s 9s 29 34 mph 993.1mb 47f 51f
12:50 17.5ft 13s 8s 29 36 mph 993.2mb 48f 51f
mar. 01/17 11:50 22.5ft 12s 9s 29 38 mph 994.1mb 48f 51f
10:50 21.5ft 11s 9s 29 36 mph 993.7mb 49f 51f
9:50 21.5ft 11s 9s 31 38 mph 994.4mb 48f 51f
8:50 19.5ft 11s 8s 31 38 mph 993.8mb 49f 51f
7:50 22ft 11s 9s 34 40 mph 993.3mb 49f 51f
6:50 21ft 11s 9s 36 45 mph 993.5mb 49f 50f
4:50 18.5ft 14s 8s 34 45 mph 993.6mb 49f 50f
3:50 19.5ft 14s 9s 34 43 mph 994.5mb 48f 49f
2:50 18.5ft 12s 8s 36 45 mph 995.4mb 48f 48f
1:50 17.5ft 14s 8s 34 40 mph 997.5mb 49f 48f
12:50 18ft 11s 8s 34 40 mph 999.7mb 48f 48f
11:50 17ft 16s 8s 31 38 mph 1001.5mb 48f 48f
10:50 16.5ft 14s 8s 31 40 mph 1002.7mb 48f 49f
9:50 16ft 16s 8s 29 38 mph 1003.3mb 48f 48f
8:50 16ft 15s 8s 29 36 mph 1002.8mb 49f 49f
7:50 14ft 17s 8s 31 38 mph 1003.1mb 48f 48f
6:50 15ft 16s 8s 29 36 mph 1003.3mb 47f 47f
5:50 12ft 17s 7s 31 38 mph 1004mb 47f 48f
4:50 12.5ft 14s 7s 29 36 mph 1005.4mb 47f 48f
3:50 11ft 16s 7s 31 40 mph 1006.3mb 46f 48f
2:50 10ft 16s 7s 27 31 mph 1007.5mb 47f 47f
1:50 10ft 16s 7s 25 34 mph 1008.8mb 46f 47f
12:50 9ft 17s 7s 25 31 mph 1009.5mb 46f 48f
lun. 01/16 11:50 8.5ft 17s 6s 25 29 mph 1009.9mb 46f 48f
10:50 7.5ft 13s 6s 25 31 mph 1010.1mb 46f 48f
9:50 7ft 12s 6s 29 34 mph 1010.5mb 46f 48f
8:50 7.5ft 14s 6s 25 29 mph 1011.5mb 46f 47f
7:50 6ft 13s 6s 25 31 mph 1012.5mb 46f 48f
6:50 6ft 13s 6s 22 27 mph 1013.3mb 46f 47f
5:50 6ft 14s 7s 20 25 mph 1013.9mb 46f 47f
4:50 6ft 14s 7s 20 22 mph 1014.2mb 46f 48f
3:50 6ft 14s 7s 20 25 mph 1014.1mb 45f 47f
2:50 6ft 14s 6s 20 22 mph 1014.8mb 45f 47f
1:50 7ft 14s 7s 20 27 mph 1015.4mb 45f 46f
12:50 6.5ft 14s 7s 22 27 mph 1016.6mb 46f 45f
11:50 6.5ft 15s 7s 18 22 mph 1018.5mb 45f 44f
10:50 6ft 13s 7s 20 22 mph 1019mb 45f 43f
9:50 7ft 14s 8s 18 22 mph 1019.8mb 45f 43f
8:50 6ft 13s 7s 18 22 mph 1019.9mb 45f 43f
7:50 7ft 14s 7s 20 25 mph 1019.5mb 45f 43f
6:50 7ft 15s 7s 20 25 mph 1019.9mb 45f 43f
5:50 7ft 15s 8s 18 22 mph 1020.9mb 45f 43f
4:50 7.5ft 15s 8s 18 22 mph 1021.2mb 45f 43f
3:50 7ft 15s 8s 16 20 mph 1022mb 45f 43f
2:50 8ft 15s 9s 13 18 mph 1023mb 45f 43f
1:50 8ft 15s 9s 16 20 mph 1022.6mb 45f 43f
12:50 8ft 14s 9s 16 18 mph 1023.2mb 45f 42f
dim. 01/15 11:50 8ft 15s 9s 18 22 mph 1022.9mb 45f 42f
10:50 8ft 16s 9s 16 22 mph 1023.5mb 45f 43f
9:50 8.5ft 16s 10s 13 18 mph 1024.4mb 45f 43f
8:50 10ft 16s 11s 11 13 mph 1024.8mb 45f 44f
7:50 9ft 16s 11s 11 16 mph 1024.6mb 45f 45f
6:50 9ft 16s 11s 7 9 mph 1024.4mb 45f 45f
5:50 8ft 16s 11s 11 16 mph 1023.4mb 46f 44f
4:50 8ft 17s 11s 9 11 mph 1023.8mb 46f 43f
3:50 8ft 12s 10s 2 4 mph 1025.3mb 46f 43f
2:50 8ft 17s 11s 2 7 mph 1024.8mb 46f 42f
1:50 7.5ft 17s 10s 4 7 mph 1024.6mb 46f 42f
12:50 6.5ft 17s 9s 4 7 mph 1025mb 46f 42f
11:50 7ft 17s 9s 9 11 mph 1025mb 46f 41f
10:50 7ft 17s 9s 11 13 mph 1025.4mb 46f 41f
9:50 6ft 17s 9s 13 18 mph 1025mb 46f 41f
8:50 6ft 17s 9s 13 16 mph 1025mb 45f 41f
7:50 5.5ft 19s 8s 13 18 mph 1025mb 45f 41f
6:50 6ft 19s 8s 13 18 mph 1024.9mb 45f 40f
5:50 6ft 11s 8s 11 13 mph 1024.7mb 45f 40f
4:50 6ft 11s 8s 9 11 mph 1025.3mb 45f 41f
3:50 6ft 11s 9s 11 13 mph 1025.4mb 45f 41f
2:50 6ft 10s 8s 11 16 mph 1025.4mb 45f 42f
1:50 5.5ft 11s 8s 11 13 mph 1024.3mb 45f 43f
12:50 6.5ft 19s 9s 7
mph
1024.8mb 46f 42f
sam. 01/14 11:50 6.5ft 11s 9s 4 9 mph 1024.5mb 46f 43f
10:50 7ft 10s 9s 2 4 mph 1024.3mb 46f 43f
9:50 7ft 11s 9s 2 7 mph 1024.3mb 46f 43f
8:50 7ft 10s 9s 4 7 mph 1024.6mb 46f 42f